logo
Search for airport 
image banner adimage banner adimage banner ad
image banner ad

YNDS - Natal Downs Airport

Located in Pentland, Australia

ICAO - YNDS, IATA -

Data provided by Airmate  

General information

Coordinates: S21°5'28" E146°9'25"
Elevation is 758 feet MSL.
Magnetic variation is 8° East
View others Airports in Queensland

Operational data

Special qualification required
Current time UTC:
Current local time:
Weather at : - ( 0 km )
METAR: UIII 231851Z 00000MPS 0600 0300S PRFG NSC 16/16 Q1004 R30/CLRD60 NOSIG RMK QFE709/0946
View NOTAMs / SUP AIP / TFR affecting this airport [VIEW]
Communications frequencies: [VIEW]

Runways:

RWY identifierQFULength (ft)Width (ft)SurfaceLDA (ft)
0999°346964DIRT
27279°346964DIRT
0663°340740DIRT
24243°340740DIRT

Airport contact information

Address: Pentland Australia

Satellite view of YNDS